Time;durP1;ratioP1;P1;durP2;ratioP2;P2;SDS_P1;SDS_P2;PMS_P1;PMS_P2;Temp;Humidity;BMP_temperature;BMP_pressure;BME280_temperature;BME280_humidity;BME280_pressure;Samples;Min_cycle;Max_cycle;Signal;HPM_P1;HPM_P2
2022/01/06 00:02:05;;;;;;;7.80;3.10;;;3.90;1.00;;;;;;5072547;28;20689;-74
2022/01/06 00:04:32;;;;;;;8.43;2.70;;;3.80;1.00;;;;;;5071727;28;20629;-75
2022/01/06 00:07:00;;;;;;;8.67;2.80;;;3.90;1.00;;;;;;5072384;28;20205;-75
2022/01/06 00:09:27;;;;;;;4.20;2.40;;;3.80;1.00;;;;;;5072262;28;20214;-76
2022/01/06 00:11:54;;;;;;;4.97;2.37;;;3.90;1.00;;;;;;5072357;28;20620;-75
2022/01/06 00:14:35;;;;;;;10.50;3.23;;;3.80;1.00;;;;;;5072811;28;20206;-75
2022/01/06 00:17:18;;;;;;;5.07;2.57;;;3.80;1.00;;;;;;5072281;28;20293;-75
2022/01/06 00:25:21;;;;;;;4.03;2.20;;;3.90;1.00;;;;;;5072398;28;20248;-74
2022/01/06 00:27:48;;;;;;;4.57;2.60;;;4.00;1.00;;;;;;5071848;28;20247;-74
2022/01/06 00:30:15;;;;;;;6.43;2.13;;;3.90;1.00;;;;;;5072175;28;20198;-72
2022/01/06 00:32:42;;;;;;;13.83;4.07;;;3.90;1.00;;;;;;5071318;28;20697;-72
2022/01/06 00:35:09;;;;;;;5.97;2.40;;;4.00;1.00;;;;;;5071800;28;20255;-71
2022/01/06 00:37:37;;;;;;;4.10;2.33;;;4.10;1.00;;;;;;5071486;28;20206;-72
2022/01/06 00:40:06;;;;;;;11.13;3.80;;;4.00;1.00;;;;;;5071639;28;20206;-72
2022/01/06 00:42:32;;;;;;;7.20;2.17;;;4.00;1.00;;;;;;5071644;28;20201;-71
2022/01/06 00:44:59;;;;;;;7.60;2.47;;;4.10;1.00;;;;;;5071475;28;20206;-72
2022/01/06 00:47:26;;;;;;;4.70;2.30;;;4.10;1.00;;;;;;5071213;28;20199;-73
2022/01/06 00:49:53;;;;;;;11.83;3.93;;;4.10;1.00;;;;;;5071741;28;20248;-74
2022/01/06 00:52:20;;;;;;;5.87;2.30;;;4.00;1.00;;;;;;5071649;28;20263;-73
2022/01/06 00:54:49;;;;;;;7.63;2.47;;;4.10;1.00;;;;;;5071104;28;20209;-73
2022/01/06 00:57:16;;;;;;;7.60;2.73;;;4.00;1.00;;;;;;5071726;28;20279;-73
2022/01/06 00:59:43;;;;;;;7.80;2.77;;;4.10;1.00;;;;;;5071241;28;20202;-73
2022/01/06 01:02:10;;;;;;;3.83;2.63;;;4.10;1.00;;;;;;5080084;28;20205;-75
2022/01/06 01:04:37;;;;;;;6.07;2.23;;;4.00;1.00;;;;;;5071687;28;20199;-73
2022/01/06 01:07:04;;;;;;;3.37;1.80;;;4.00;1.00;;;;;;5071070;28;20206;-74
2022/01/06 01:09:31;;;;;;;4.37;2.17;;;4.20;1.00;;;;;;5071163;28;20259;-75
2022/01/06 01:12:03;;;;;;;4.07;1.83;;;5.40;1.00;;;;;;5071552;28;20202;-74
2022/01/06 01:14:33;;;;;;;6.47;3.13;;;4.00;1.00;;;;;;5082415;28;20299;-73
2022/01/06 01:17:02;;;;;;;4.20;2.70;;;4.00;1.00;;;;;;5089607;28;20208;-73
2022/01/06 01:19:31;;;;;;;5.87;2.03;;;3.90;1.00;;;;;;5089296;28;20209;-74
2022/01/06 01:21:59;;;;;;;5.40;1.80;;;4.20;1.00;;;;;;5090743;28;20722;-73
2022/01/06 01:24:26;;;;;;;9.57;3.63;;;4.20;1.00;;;;;;5091053;28;20205;-74
2022/01/06 01:26:53;;;;;;;8.57;2.00;;;4.00;1.00;;;;;;5091717;28;20201;-73
2022/01/06 01:29:22;;;;;;;6.70;3.50;;;4.00;1.00;;;;;;5091630;28;20212;-73
2022/01/06 01:31:52;;;;;;;7.43;2.17;;;4.00;1.00;;;;;;5090957;28;20262;-73
2022/01/06 01:34:23;;;;;;;7.63;2.83;;;4.00;1.00;;;;;;5091354;28;20294;-74
2022/01/06 01:36:50;;;;;;;4.73;2.47;;;4.00;1.00;;;;;;5091444;28;20576;-74
2022/01/06 01:39:18;;;;;;;9.27;2.47;;;5.00;1.00;;;;;;5091064;28;20205;-75
2022/01/06 01:41:45;;;;;;;5.90;2.10;;;3.90;1.00;;;;;;5090085;28;20689;-74
2022/01/06 01:44:14;;;;;;;5.93;2.77;;;3.90;1.00;;;;;;5090924;28;20217;-74
2022/01/06 01:46:45;;;;;;;8.00;2.47;;;3.90;1.00;;;;;;5090343;28;20280;-74
2022/01/06 01:49:28;;;;;;;8.30;3.43;;;3.90;1.00;;;;;;5091022;28;20212;-74
2022/01/06 01:51:55;;;;;;;5.53;2.03;;;3.90;1.00;;;;;;5090799;28;20202;-74
2022/01/06 01:54:23;;;;;;;4.70;2.33;;;3.90;1.00;;;;;;5091188;28;20236;-73
2022/01/06 01:56:51;;;;;;;5.73;2.53;;;4.20;1.00;;;;;;5091001;28;20205;-74
2022/01/06 01:59:18;;;;;;;5.87;2.10;;;5.40;1.00;;;;;;5090860;28;20231;-75
2022/01/06 02:01:46;;;;;;;5.53;2.33;;;4.60;1.00;;;;;;5090201;28;20738;-74
2022/01/06 02:04:14;;;;;;;6.27;2.77;;;3.90;1.00;;;;;;5090738;28;20555;-74
2022/01/06 02:06:41;;;;;;;4.80;2.00;;;3.90;1.00;;;;;;5090524;28;20608;-74
2022/01/06 02:09:08;;;;;;;4.80;2.53;;;4.40;1.00;;;;;;5090798;28;20201;-74
2022/01/06 02:11:35;;;;;;;12.97;3.50;;;3.90;1.00;;;;;;5090368;28;20205;-74
2022/01/06 02:14:05;;;;;;;10.50;2.40;;;3.90;1.00;;;;;;5094161;28;20279;-74
2022/01/06 02:16:32;;;;;;;4.27;2.07;;;3.80;1.00;;;;;;5094204;28;20201;-75
2022/01/06 02:19:00;;;;;;;6.17;2.13;;;4.30;1.00;;;;;;5094979;28;20556;-76
2022/01/06 02:21:28;;;;;;;7.83;2.67;;;3.70;1.00;;;;;;5094285;28;20201;-76
2022/01/06 02:23:56;;;;;;;8.57;2.50;;;3.60;1.00;;;;;;5094692;28;20201;-76
2022/01/06 02:26:23;;;;;;;3.23;2.10;;;3.60;1.00;;;;;;5094810;28;20251;-76
2022/01/06 02:28:50;;;;;;;8.17;2.10;;;3.60;1.00;;;;;;5094920;28;20284;-74
2022/01/06 02:31:17;;;;;;;10.37;2.67;;;3.60;1.00;;;;;;5094939;28;20201;-74
2022/01/06 02:33:44;;;;;;;4.67;1.90;;;3.60;1.00;;;;;;5094155;28;20304;-73
2022/01/06 02:36:11;;;;;;;3.53;2.60;;;3.50;1.00;;;;;;5094352;28;20572;-73
2022/01/06 02:38:39;;;;;;;10.07;3.00;;;3.50;1.00;;;;;;5093951;28;20247;-73
2022/01/06 02:41:06;;;;;;;5.40;2.33;;;3.50;1.00;;;;;;5094050;28;20673;-73
2022/01/06 02:43:35;;;;;;;4.53;2.00;;;3.50;1.00;;;;;;5093773;28;20217;-73
2022/01/06 02:46:02;;;;;;;7.97;2.77;;;3.50;1.00;;;;;;5094224;28;20695;-73
2022/01/06 02:48:29;;;;;;;7.63;2.13;;;3.40;1.00;;;;;;5094016;28;20266;-73
2022/01/06 02:50:56;;;;;;;6.60;2.63;;;3.30;1.00;;;;;;5094247;28;20205;-72
2022/01/06 02:53:23;;;;;;;7.87;1.90;;;3.40;1.00;;;;;;5094216;28;20282;-73
2022/01/06 02:55:53;;;;;;;5.73;2.00;;;3.40;1.00;;;;;;5089270;28;20242;-73
2022/01/06 02:58:21;;;;;;;5.30;2.30;;;3.20;1.00;;;;;;5073541;28;20211;-72
2022/01/06 03:00:49;;;;;;;5.43;3.13;;;3.30;1.00;;;;;;5073754;28;20217;-72
2022/01/06 03:03:16;;;;;;;7.87;3.63;;;3.10;1.00;;;;;;5073730;28;20280;-72
2022/01/06 03:05:43;;;;;;;5.10;2.13;;;2.90;1.00;;;;;;5073183;28;20206;-72
2022/01/06 03:08:11;;;;;;;3.57;2.13;;;3.10;1.00;;;;;;5073500;28;20623;-73
2022/01/06 03:10:42;;;;;;;5.30;1.83;;;3.20;1.00;;;;;;5073111;28;20648;-72
2022/01/06 03:13:10;;;;;;;8.53;2.73;;;3.10;1.00;;;;;;5073349;28;20230;-72
2022/01/06 03:15:37;;;;;;;6.73;3.97;;;3.20;1.00;;;;;;5073020;28;20252;-72
2022/01/06 03:18:04;;;;;;;3.53;2.27;;;3.20;1.00;;;;;;5073445;28;20198;-72
2022/01/06 03:20:31;;;;;;;7.73;2.60;;;3.30;1.00;;;;;;5072819;28;20669;-72
2022/01/06 03:22:59;;;;;;;11.23;2.33;;;3.30;1.00;;;;;;5073244;28;20202;-72
2022/01/06 03:25:26;;;;;;;10.90;2.73;;;3.30;1.00;;;;;;5072443;28;20199;-72
2022/01/06 03:27:53;;;;;;;4.30;2.00;;;3.30;1.00;;;;;;5072862;28;20206;-72
2022/01/06 03:30:23;;;;;;;11.03;2.77;;;3.30;1.00;;;;;;5073602;28;20198;-72
2022/01/06 03:32:51;;;;;;;7.90;2.50;;;3.30;1.00;;;;;;5073367;28;20213;-72
2022/01/06 03:35:22;;;;;;;3.00;1.90;;;3.20;1.00;;;;;;5073365;28;20234;-72
2022/01/06 03:37:49;;;;;;;8.00;3.73;;;3.20;1.00;;;;;;5072978;28;20202;-72
2022/01/06 03:40:16;;;;;;;4.80;2.50;;;3.20;1.00;;;;;;5072760;28;20622;-72
2022/01/06 03:42:43;;;;;;;4.33;2.20;;;3.20;1.00;;;;;;5072329;28;20252;-73
2022/01/06 03:45:13;;;;;;;8.43;2.90;;;3.20;1.00;;;;;;5072784;28;20222;-72
2022/01/06 03:47:42;;;;;;;11.80;2.87;;;3.20;1.00;;;;;;5072481;28;20268;-72
2022/01/06 03:50:11;;;;;;;8.17;2.40;;;3.30;1.00;;;;;;5073037;28;20202;-73
2022/01/06 03:52:38;;;;;;;6.73;2.47;;;3.30;1.00;;;;;;5072312;28;20609;-72
2022/01/06 03:55:07;;;;;;;6.00;2.23;;;3.20;1.00;;;;;;5072739;28;20234;-73
2022/01/06 03:57:35;;;;;;;5.10;2.20;;;3.20;1.00;;;;;;5072047;28;20674;-72
2022/01/06 04:00:03;;;;;;;8.83;2.47;;;3.10;1.00;;;;;;5072675;28;20573;-72
2022/01/06 04:02:30;;;;;;;4.83;2.47;;;3.50;1.00;;;;;;5072449;28;20205;-73
2022/01/06 04:04:58;;;;;;;4.90;1.97;;;3.00;1.00;;;;;;5072576;28;20206;-73
2022/01/06 04:07:25;;;;;;;4.63;1.90;;;2.80;1.00;;;;;;5072309;28;20202;-73
2022/01/06 04:09:52;;;;;;;5.60;3.10;;;2.90;1.00;;;;;;5072808;28;20205;-72
2022/01/06 04:12:19;;;;;;;6.97;2.93;;;2.80;1.00;;;;;;5072637;28;20202;-72
2022/01/06 04:14:46;;;;;;;6.63;2.90;;;2.70;1.00;;;;;;5071792;28;20225;-73
2022/01/06 04:17:13;;;;;;;4.77;2.60;;;2.60;1.00;;;;;;5072066;28;20202;-72
2022/01/06 04:19:40;;;;;;;7.70;3.47;;;4.60;1.00;;;;;;5072064;28;20202;-71
2022/01/06 04:22:08;;;;;;;8.33;3.90;;;2.50;1.00;;;;;;5072267;28;20206;-71
2022/01/06 04:24:36;;;;;;;6.70;2.20;;;2.40;1.00;;;;;;5071400;28;20264;-71
2022/01/06 04:27:03;;;;;;;4.07;2.57;;;2.40;1.00;;;;;;5072027;28;20202;-71
2022/01/06 04:29:30;;;;;;;7.20;2.67;;;2.40;1.00;;;;;;5071575;28;20228;-71
2022/01/06 04:31:57;;;;;;;9.87;2.80;;;2.40;1.00;;;;;;5072147;28;20202;-71
2022/01/06 04:34:24;;;;;;;7.67;2.80;;;2.20;1.00;;;;;;5071845;28;20237;-72
2022/01/06 04:36:54;;;;;;;7.80;2.57;;;2.20;1.00;;;;;;5071260;28;20198;-72
2022/01/06 04:39:23;;;;;;;6.77;3.20;;;2.30;1.00;;;;;;5071942;28;20202;-72
2022/01/06 04:41:50;;;;;;;10.13;2.60;;;2.30;1.00;;;;;;5071998;28;20209;-72
2022/01/06 04:44:17;;;;;;;8.33;2.97;;;2.20;1.00;;;;;;5071581;28;20754;-72
2022/01/06 04:46:44;;;;;;;8.43;2.17;;;2.20;1.00;;;;;;5071424;28;20202;-73
2022/01/06 04:49:12;;;;;;;5.93;3.23;;;2.30;1.00;;;;;;5071741;28;20280;-72
2022/01/06 04:51:39;;;;;;;3.73;2.33;;;2.20;1.00;;;;;;5071206;28;20198;-72
2022/01/06 04:54:06;;;;;;;10.73;3.23;;;2.10;1.00;;;;;;5071202;28;20222;-73
2022/01/06 04:56:37;;;;;;;5.40;3.73;;;2.00;1.00;;;;;;5071268;28;20267;-73
2022/01/06 04:59:05;;;;;;;4.97;2.70;;;1.90;1.00;;;;;;5071439;28;20198;-72
2022/01/06 05:01:32;;;;;;;8.43;3.60;;;1.80;1.00;;;;;;5070960;28;20575;-72
2022/01/06 05:03:59;;;;;;;8.10;3.77;;;2.00;1.00;;;;;;5071239;28;20552;-73
2022/01/06 05:06:26;;;;;;;10.27;3.50;;;1.90;1.00;;;;;;5070919;28;20256;-73
2022/01/06 05:08:54;;;;;;;8.17;4.43;;;1.80;1.00;;;;;;5071061;28;20202;-72
2022/01/06 05:11:21;;;;;;;7.27;2.70;;;1.90;1.00;;;;;;5071780;28;20259;-73
2022/01/06 05:13:50;;;;;;;12.23;3.47;;;1.90;1.00;;;;;;5071022;28;20723;-73
2022/01/06 05:16:17;;;;;;;7.63;2.90;;;1.80;1.00;;;;;;5071066;28;20259;-73
2022/01/06 05:18:44;;;;;;;4.90;3.13;;;1.80;1.00;;;;;;5070644;28;20568;-73
2022/01/06 05:21:11;;;;;;;16.97;3.47;;;1.80;1.00;;;;;;5071045;28;20202;-73
2022/01/06 05:23:39;;;;;;;6.37;3.33;;;1.70;1.00;;;;;;5070417;28;20206;-73
2022/01/06 05:26:06;;;;;;;10.70;4.50;;;1.70;1.00;;;;;;5071224;28;20565;-73
2022/01/06 05:28:33;;;;;;;8.33;3.00;;;1.70;1.00;;;;;;5070629;28;20214;-73
2022/01/06 05:31:01;;;;;;;4.80;2.47;;;1.70;1.00;;;;;;5071015;28;20198;-73
2022/01/06 05:33:28;;;;;;;7.87;2.40;;;1.70;1.00;;;;;;5070595;28;20202;-73
2022/01/06 05:35:55;;;;;;;8.27;2.93;;;1.60;1.00;;;;;;5070861;28;20209;-74
2022/01/06 05:38:22;;;;;;;7.90;4.00;;;1.60;1.00;;;;;;5071186;28;20264;-73
2022/01/06 05:40:49;;;;;;;6.07;3.67;;;1.60;1.00;;;;;;5070709;28;20807;-73
2022/01/06 05:43:19;;;;;;;9.50;5.50;;;1.70;1.00;;;;;;5070784;28;20232;-74
2022/01/06 05:45:46;;;;;;;11.53;7.10;;;1.60;1.00;;;;;;5070313;28;20247;-73
2022/01/06 05:48:14;;;;;;;9.47;4.07;;;1.60;1.00;;;;;;5069960;28;20214;-73
2022/01/06 05:50:41;;;;;;;6.83;3.17;;;1.60;1.00;;;;;;5070279;28;20205;-74
2022/01/06 05:53:09;;;;;;;9.10;3.73;;;1.50;1.00;;;;;;5070256;28;20206;-74
2022/01/06 05:55:36;;;;;;;14.13;5.33;;;1.50;1.00;;;;;;5069282;28;20287;-74
2022/01/06 05:58:03;;;;;;;8.60;5.40;;;1.50;1.00;;;;;;5070649;28;20262;-73
2022/01/06 06:00:30;;;;;;;9.67;5.63;;;1.50;1.00;;;;;;5070347;28;20198;-73
2022/01/06 06:02:57;;;;;;;7.67;5.53;;;1.40;1.00;;;;;;5070449;28;20206;-74
2022/01/06 06:05:26;;;;;;;7.07;5.50;;;1.40;1.00;;;;;;5070730;28;20231;-74
2022/01/06 06:07:53;;;;;;;11.53;5.43;;;1.40;1.00;;;;;;5070450;28;20751;-74
2022/01/06 06:10:20;;;;;;;14.03;6.33;;;1.40;1.00;;;;;;5070860;28;20742;-73
2022/01/06 06:12:48;;;;;;;15.60;5.90;;;1.40;1.00;;;;;;5070256;28;20203;-74
2022/01/06 06:15:15;;;;;;;9.67;6.23;;;1.30;1.00;;;;;;5070429;28;20210;-74
2022/01/06 06:17:43;;;;;;;9.47;5.17;;;1.20;1.00;;;;;;5070551;28;20267;-75
2022/01/06 06:20:11;;;;;;;12.27;5.40;;;1.20;1.00;;;;;;5078652;28;20241;-74
2022/01/06 06:22:40;;;;;;;7.53;4.77;;;1.10;1.00;;;;;;5088639;28;20210;-76
2022/01/06 06:25:08;;;;;;;11.97;7.27;;;1.10;1.00;;;;;;5070807;28;20229;-73
2022/01/06 06:27:35;;;;;;;13.60;11.90;;;1.20;1.00;;;;;;5082880;28;20209;-72
2022/01/06 06:30:03;;;;;;;11.20;9.23;;;1.20;1.00;;;;;;5090050;28;20201;-72
2022/01/06 06:32:33;;;;;;;10.03;9.07;;;1.20;1.00;;;;;;5090085;28;20622;-72
2022/01/06 06:35:00;;;;;;;9.07;7.00;;;1.30;1.00;;;;;;5090132;28;20630;-75
2022/01/06 06:37:27;;;;;;;10.03;6.30;;;1.30;1.00;;;;;;5082880;28;20297;-75
2022/01/06 06:39:56;;;;;;;10.97;6.00;;;1.30;1.00;;;;;;5088058;28;20258;-73
2022/01/06 06:42:23;;;;;;;17.03;7.40;;;1.20;1.00;;;;;;5090369;28;20630;-73
2022/01/06 06:44:50;;;;;;;16.20;6.03;;;1.20;1.00;;;;;;5090022;28;20236;-73
2022/01/06 06:47:18;;;;;;;13.87;5.23;;;1.30;1.00;;;;;;5090486;28;20210;-76
2022/01/06 06:49:45;;;;;;;11.90;5.50;;;1.30;1.00;;;;;;5089482;28;20275;-72
2022/01/06 06:52:14;;;;;;;10.03;4.90;;;1.20;1.00;;;;;;5090332;28;20214;-75
2022/01/06 06:54:41;;;;;;;15.77;6.77;;;1.30;1.00;;;;;;5089751;28;20247;-74
2022/01/06 06:57:10;;;;;;;11.60;6.90;;;1.50;1.00;;;;;;5081015;28;20211;-74
2022/01/06 06:59:37;;;;;;;12.90;6.80;;;1.10;1.00;;;;;;5086899;28;20627;-74
2022/01/06 07:02:05;;;;;;;9.53;6.67;;;1.20;1.00;;;;;;5089920;28;20282;-73
2022/01/06 07:04:32;;;;;;;14.73;5.77;;;1.30;1.00;;;;;;5079845;28;20543;-75
2022/01/06 07:06:59;;;;;;;6.73;4.70;;;1.20;1.00;;;;;;5085294;28;20289;-74
2022/01/06 07:09:26;;;;;;;12.37;6.47;;;2.10;1.00;;;;;;5093089;28;20730;-75
2022/01/06 07:11:53;;;;;;;8.43;4.53;;;1.10;1.00;;;;;;5093314;28;20669;-75
2022/01/06 07:14:22;;;;;;;9.73;5.33;;;1.00;1.00;;;;;;5082956;28;20212;-75
2022/01/06 07:16:49;;;;;;;13.73;5.30;;;1.30;1.00;;;;;;5090314;28;20198;-73
2022/01/06 07:19:16;;;;;;;16.93;5.27;;;0.90;1.00;;;;;;5093220;28;20206;-75
2022/01/06 07:21:43;;;;;;;13.27;5.70;;;1.00;1.00;;;;;;5091504;28;20214;-77
2022/01/06 07:24:10;;;;;;;7.47;4.80;;;1.10;1.00;;;;;;5082087;28;20209;-73
2022/01/06 07:26:37;;;;;;;11.50;5.50;;;1.00;1.00;;;;;;5086406;28;20206;-74
2022/01/06 07:29:04;;;;;;;8.33;5.30;;;1.10;1.00;;;;;;5080949;28;20204;-73
2022/01/06 07:31:32;;;;;;;11.70;6.27;;;1.30;1.00;;;;;;5082609;28;20205;-73
2022/01/06 07:33:59;;;;;;;8.57;4.77;;;1.10;1.00;;;;;;5080678;28;20569;-74
2022/01/06 07:36:26;;;;;;;8.57;5.70;;;1.10;1.00;;;;;;5072345;28;20214;-74
2022/01/06 07:38:54;;;;;;;8.67;5.40;;;1.10;1.00;;;;;;5088376;28;20251;-74
2022/01/06 07:41:21;;;;;;;8.77;5.10;;;1.00;1.00;;;;;;5093370;28;20698;-73
2022/01/06 07:43:48;;;;;;;10.80;7.47;;;1.10;1.00;;;;;;5092559;28;20274;-74
2022/01/06 07:46:15;;;;;;;12.90;8.03;;;1.10;1.00;;;;;;5074997;28;20291;-74
2022/01/06 07:48:55;;;;;;;10.17;6.47;;;1.10;1.00;;;;;;5085454;28;20208;-74
2022/01/06 07:51:23;;;;;;;12.23;6.67;;;1.00;1.00;;;;;;5091191;28;20244;-73
2022/01/06 07:53:50;;;;;;;12.60;5.43;;;1.20;1.00;;;;;;5092330;28;20263;-74
2022/01/06 07:56:17;;;;;;;8.70;5.03;;;1.30;1.00;;;;;;5091583;28;20212;-74
2022/01/06 07:58:44;;;;;;;11.87;5.50;;;1.30;1.00;;;;;;5092662;28;20213;-74
2022/01/06 08:01:12;;;;;;;6.93;4.30;;;1.30;1.00;;;;;;5092992;28;20241;-74
2022/01/06 08:03:39;;;;;;;10.37;5.30;;;1.50;1.00;;;;;;5092239;28;20603;-75
2022/01/06 08:06:08;;;;;;;10.40;5.23;;;2.70;1.00;;;;;;5092516;28;20230;-74
2022/01/06 08:08:34;;;;;;;11.63;5.80;;;1.80;1.00;;;;;;5092301;28;20205;-74
2022/01/06 08:11:02;;;;;;;15.73;5.87;;;1.80;1.00;;;;;;5091624;28;20666;-74
2022/01/06 08:13:29;;;;;;;17.40;6.30;;;1.70;1.00;;;;;;5070407;28;20247;-74
2022/01/06 08:15:56;;;;;;;13.50;5.77;;;1.70;1.00;;;;;;5072399;28;20268;-75
2022/01/06 08:18:23;;;;;;;9.47;5.43;;;1.80;1.00;;;;;;5071146;28;20256;-74
2022/01/06 08:20:50;;;;;;;12.40;9.87;;;1.90;1.00;;;;;;5072752;28;20206;-74
2022/01/06 08:23:18;;;;;;;10.87;6.00;;;2.10;1.00;;;;;;5071615;28;20206;-75
2022/01/06 08:25:45;;;;;;;14.30;6.93;;;2.30;1.00;;;;;;5070310;28;20659;-72
2022/01/06 08:28:12;;;;;;;10.33;6.97;;;2.60;1.00;;;;;;5072006;28;20255;-73
2022/01/06 08:30:39;;;;;;;13.57;6.60;;;3.00;1.00;;;;;;5081049;28;20262;-72
2022/01/06 08:33:06;;;;;;;10.30;5.53;;;3.30;1.00;;;;;;5087775;28;20254;-72
2022/01/06 08:35:34;;;;;;;11.57;5.50;;;3.30;1.00;;;;;;5086531;28;20677;-72
2022/01/06 08:38:00;;;;;;;8.83;5.73;;;3.60;1.00;;;;;;5092100;28;20638;-72
2022/01/06 08:40:29;;;;;;;12.93;5.60;;;4.60;1.00;;;;;;5081547;28;20202;-72
2022/01/06 08:42:56;;;;;;;13.13;8.17;;;5.40;1.00;;;;;;5091601;28;20259;-72
2022/01/06 08:45:23;;;;;;;13.37;6.90;;;5.70;1.00;;;;;;5090376;28;20765;-72
2022/01/06 08:47:50;;;;;;;13.83;5.47;;;6.00;1.00;;;;;;5090703;28;20205;-72
2022/01/06 08:50:17;;;;;;;12.87;6.67;;;5.70;1.00;;;;;;5090820;28;20202;-72
2022/01/06 08:52:45;;;;;;;14.37;6.43;;;6.60;1.00;;;;;;5091181;28;20201;-72
2022/01/06 08:55:12;;;;;;;13.17;6.33;;;6.30;1.00;;;;;;5091853;28;20236;-73
2022/01/06 08:57:41;;;;;;;12.00;5.10;;;6.50;1.00;;;;;;5091449;28;20262;-72
2022/01/06 09:00:11;;;;;;;7.53;5.20;;;6.40;1.00;;;;;;5091498;28;20198;-72
2022/01/06 09:02:38;;;;;;;12.73;7.67;;;6.80;1.00;;;;;;5089817;28;20201;-72
2022/01/06 09:05:06;;;;;;;12.77;6.50;;;7.80;1.00;;;;;;5088682;28;20279;-72
2022/01/06 09:07:34;;;;;;;12.90;5.93;;;7.90;1.00;;;;;;5090356;28;20224;-72
2022/01/06 09:10:01;;;;;;;6.57;5.33;;;8.00;1.00;;;;;;5091501;28;20210;-73
2022/01/06 09:12:28;;;;;;;13.20;6.43;;;7.40;1.00;;;;;;5091337;28;20614;-72
2022/01/06 09:14:57;;;;;;;11.50;5.27;;;7.10;1.00;;;;;;5091226;28;20718;-73
2022/01/06 09:17:24;;;;;;;12.33;5.53;;;6.70;1.00;;;;;;5091625;28;20209;-73
2022/01/06 09:19:51;;;;;;;9.90;5.70;;;6.80;1.00;;;;;;5091737;28;20247;-73
2022/01/06 09:22:18;;;;;;;11.00;4.83;;;7.30;1.00;;;;;;5091274;28;20302;-74
2022/01/06 09:24:45;;;;;;;5.93;4.63;;;7.60;1.00;;;;;;5091027;28;20201;-73
2022/01/06 09:27:12;;;;;;;7.63;4.70;;;8.20;1.00;;;;;;5091226;28;20713;-73
2022/01/06 09:29:39;;;;;;;8.80;4.27;;;8.40;1.00;;;;;;5090586;28;20672;-73
2022/01/06 09:32:09;;;;;;;7.43;3.77;;;9.30;1.00;;;;;;5091200;28;20251;-73
2022/01/06 09:34:36;;;;;;;6.30;3.23;;;10.80;1.00;;;;;;5090865;28;20205;-73
2022/01/06 09:37:04;;;;;;;6.83;3.20;;;11.70;1.00;;;;;;5091183;28;20209;-73
2022/01/06 09:39:31;;;;;;;6.57;2.40;;;11.50;1.00;;;;;;5090653;28;20251;-73
2022/01/06 09:41:58;;;;;;;8.67;3.40;;;11.10;1.00;;;;;;5085728;28;20219;-74
2022/01/06 09:44:26;;;;;;;7.30;3.03;;;11.40;1.00;;;;;;5090478;28;20266;-73
2022/01/06 09:46:55;;;;;;;5.23;2.53;;;12.50;99.90;;;;;;5091047;28;20282;-73
2022/01/06 09:49:23;;;;;;;5.63;2.53;;;13.10;99.90;;;;;;5091290;28;20208;-73
2022/01/06 09:51:51;;;;;;;7.13;2.80;;;12.80;99.90;;;;;;5091268;28;20201;-73
2022/01/06 09:54:19;;;;;;;6.20;2.37;;;13.40;99.90;;;;;;5091078;28;20205;-73
2022/01/06 09:56:46;;;;;;;11.10;2.93;;;14.10;99.90;;;;;;5090413;28;20263;-74
2022/01/06 09:59:13;;;;;;;5.13;2.27;;;13.50;99.90;;;;;;5090885;28;20712;-74
2022/01/06 10:01:40;;;;;;;8.52;2.40;;;13.80;99.90;;;;;;5090602;28;20197;-78
2022/01/06 10:04:18;;;;;;;3.38;1.83;;;13.40;99.90;;;;;;5090910;28;20247;-73
2022/01/06 10:06:57;;;;;;;4.93;2.17;;;13.40;99.90;;;;;;5090100;28;20735;-74
2022/01/06 10:09:25;;;;;;;4.93;1.73;;;13.00;99.90;;;;;;5090796;28;20205;-73
2022/01/06 10:11:55;;;;;;;9.27;3.45;;;13.80;99.90;;;;;;5091020;28;20686;-73
2022/01/06 10:14:31;;;;;;;8.52;2.30;;;14.70;99.90;;;;;;5091006;28;20280;-74
2022/01/06 10:16:59;;;;;;;6.18;3.17;;;15.70;99.90;;;;;;5090604;28;20241;-73
2022/01/06 10:19:26;;;;;;;7.45;3.85;;;15.80;99.90;;;;;;5090046;28;20205;-73
2022/01/06 10:21:58;;;;;;;4.57;2.78;;;16.30;99.90;;;;;;5090969;28;20232;-73
2022/01/06 10:24:26;;;;;;;7.57;4.10;;;15.90;99.90;;;;;;5090569;28;20205;-73
2022/01/06 10:26:57;;;;;;;7.85;1.40;;;16.10;99.90;;;;;;5090502;28;20374;-73
2022/01/06 10:29:27;;;;;;;6.53;3.17;;;16.30;99.90;;;;;;5090353;28;20255;-75
2022/01/06 10:32:02;;;;;;;9.65;2.28;;;16.80;99.90;;;;;;5080175;28;20213;-72
2022/01/06 10:34:33;;;;;;;14.70;3.63;;;17.10;99.90;;;;;;5085466;28;20226;-76
2022/01/06 10:37:03;;;;;;;14.10;5.75;;;17.90;99.90;;;;;;5089878;28;20680;-73
2022/01/06 10:39:41;;;;;;;5.82;3.05;;;17.70;99.90;;;;;;5093741;28;20266;-75
2022/01/06 10:42:09;;;;;;;5.00;2.42;;;17.00;99.90;;;;;;5097659;28;20225;-74
2022/01/06 10:44:46;;;;;;;3.53;1.83;;;17.30;99.90;;;;;;5093609;28;20217;-73
2022/01/06 10:47:13;;;;;;;4.90;2.95;;;15.50;99.90;;;;;;5093814;28;20278;-74
2022/01/06 10:49:40;;;;;;;7.00;2.38;;;15.40;99.90;;;;;;5078383;28;20205;-74
2022/01/06 10:52:09;;;;;;;4.82;2.45;;;16.00;99.90;;;;;;5093854;28;20201;-77
2022/01/06 10:54:38;;;;;;;5.83;2.23;;;14.20;99.90;;;;;;5093255;28;20205;-75
2022/01/06 10:57:09;;;;;;;8.50;2.50;;;10.40;99.90;;;;;;5093605;28;20300;-75
2022/01/06 10:59:37;;;;;;;10.07;2.37;;;8.60;99.90;;;;;;5091395;28;20554;-75
2022/01/06 11:02:05;;;;;;;9.57;2.50;;;7.70;99.90;;;;;;5087284;28;20721;-74
2022/01/06 11:04:33;;;;;;;4.50;2.67;;;7.10;99.90;;;;;;5089513;28;20200;-77
2022/01/06 11:07:00;;;;;;;4.23;1.90;;;6.90;99.90;;;;;;5075364;28;20238;-74
2022/01/06 11:09:30;;;;;;;7.00;2.73;;;6.90;99.90;;;;;;5088028;28;20240;-75
2022/01/06 11:14:45;;;;;;;5.50;1.40;;;6.70;99.90;;;;;;5092796;28;20235;-74
2022/01/06 11:17:12;;;;;;;7.53;1.80;;;6.80;99.90;;;;;;5093276;28;20208;-73
2022/01/06 11:19:39;;;;;;;8.03;1.83;;;6.90;99.90;;;;;;5093035;28;20210;-74
2022/01/06 11:22:07;;;;;;;10.73;2.57;;;7.00;99.90;;;;;;5093272;28;20751;-73
2022/01/06 11:24:38;;;;;;;7.47;2.60;;;6.90;99.90;;;;;;5088787;28;20590;-74
2022/01/06 11:27:08;;;;;;;6.27;2.50;;;7.00;99.90;;;;;;5092636;28;20344;-73
2022/01/06 11:29:37;;;;;;;4.97;1.60;;;7.10;99.90;;;;;;5093046;28;20676;-73
2022/01/06 11:32:06;;;;;;;10.07;2.77;;;7.20;99.90;;;;;;5093421;28;20211;-73
2022/01/06 11:34:38;;;;;;;5.80;4.20;;;7.00;99.90;;;;;;5087874;28;20211;-75
2022/01/06 11:37:13;;;;;;;6.53;3.07;;;7.00;99.90;;;;;;5082090;28;20296;-74
2022/01/06 11:39:43;;;;;;;2.63;1.40;;;7.00;99.90;;;;;;5091286;28;20230;-73
2022/01/06 11:42:15;;;;;;;8.77;3.40;;;7.10;99.90;;;;;;5086810;28;20206;-75
2022/01/06 11:44:51;;;;;;;13.57;2.20;;;7.30;99.90;;;;;;5075692;28;20218;-74
2022/01/06 11:47:29;;;;;;;5.87;2.87;;;7.20;99.90;;;;;;5091007;28;20236;-74
2022/01/06 11:50:11;;;;;;;10.10;2.10;;;7.20;99.90;;;;;;5072868;28;20236;-74
2022/01/06 11:52:49;;;;;;;7.47;2.90;;;7.40;99.90;;;;;;5090742;28;20237;-74
2022/01/06 11:55:17;;;;;;;5.37;1.67;;;7.60;99.90;;;;;;5087910;28;20209;-75
2022/01/06 11:57:44;;;;;;;7.13;3.00;;;7.60;99.90;;;;;;5082670;28;20206;-74
2022/01/06 12:00:17;;;;;;;7.77;2.20;;;7.70;99.90;;;;;;5086624;28;20217;-73
2022/01/06 12:02:55;;;;;;;2.47;1.70;;;7.70;99.90;;;;;;5086902;28;20944;-73
2022/01/06 12:05:22;;;;;;;3.93;2.07;;;7.90;99.90;;;;;;5084030;28;20258;-74
2022/01/06 12:07:51;;;;;;;12.30;2.00;;;7.90;99.90;;;;;;5086309;28;20230;-75
2022/01/06 12:10:20;;;;;;;6.53;2.03;;;7.90;99.90;;;;;;5087987;28;20285;-75
2022/01/06 12:12:50;;;;;;;2.47;1.50;;;7.90;99.90;;;;;;5088702;28;20717;-75
2022/01/06 12:15:20;;;;;;;9.00;2.97;;;8.00;99.90;;;;;;5089707;28;20710;-74
2022/01/06 12:17:48;;;;;;;6.47;1.37;;;8.10;99.90;;;;;;5088617;28;20217;-74
2022/01/06 12:20:20;;;;;;;7.00;2.07;;;8.30;99.90;;;;;;5091941;28;20214;-75
2022/01/06 12:22:48;;;;;;;5.50;2.93;;;8.70;99.90;;;;;;5088400;28;20242;-75
2022/01/06 12:25:15;;;;;;;7.07;2.00;;;8.90;99.90;;;;;;5092323;28;20251;-74
2022/01/06 12:27:48;;;;;;;6.63;1.97;;;9.00;99.90;;;;;;5077503;28;20291;-74
2022/01/06 12:30:16;;;;;;;5.53;2.27;;;8.80;99.90;;;;;;5077883;28;20618;-72
2022/01/06 12:32:43;;;;;;;6.33;2.30;;;8.40;99.90;;;;;;5085715;28;21063;-74
2022/01/06 12:35:11;;;;;;;7.20;2.53;;;8.00;99.90;;;;;;5091349;28;20262;-73
2022/01/06 12:37:38;;;;;;;3.60;1.27;;;7.60;99.90;;;;;;5091242;28;20214;-73
2022/01/06 12:40:06;;;;;;;6.93;1.57;;;7.60;99.90;;;;;;5082897;28;20826;-73
2022/01/06 12:42:41;;;;;;;5.57;2.10;;;8.30;99.90;;;;;;5078194;28;20263;-74
2022/01/06 12:45:11;;;;;;;4.93;2.27;;;8.80;99.90;;;;;;5082397;28;20567;-74
2022/01/06 12:47:47;;;;;;;3.37;2.33;;;8.70;99.90;;;;;;5083394;28;20326;-74
2022/01/06 12:50:14;;;;;;;4.17;1.27;;;8.60;99.90;;;;;;5080178;28;20254;-73
2022/01/06 12:52:47;;;;;;;9.27;1.37;;;8.30;99.90;;;;;;5082737;28;20217;-73
2022/01/06 12:55:14;;;;;;;4.47;2.07;;;8.30;99.90;;;;;;5081282;28;20213;-74
2022/01/06 12:57:41;;;;;;;5.80;2.03;;;8.60;99.90;;;;;;5084843;28;20274;-72
2022/01/06 13:00:13;;;;;;;5.00;1.67;;;8.90;99.90;;;;;;5080943;28;20247;-73
2022/01/06 13:02:41;;;;;;;3.47;2.27;;;9.00;99.90;;;;;;5081122;28;20202;-73
2022/01/06 13:05:09;;;;;;;7.30;2.47;;;8.60;99.90;;;;;;5084961;28;20284;-73
2022/01/06 13:07:35;;;;;;;6.27;2.60;;;8.10;99.90;;;;;;5083878;28;20286;-74
2022/01/06 13:10:03;;;;;;;7.57;1.73;;;7.40;99.90;;;;;;5085091;28;20209;-74
2022/01/06 13:12:30;;;;;;;5.67;2.40;;;7.30;99.90;;;;;;5084621;28;20291;-74
2022/01/06 13:14:57;;;;;;;7.07;1.67;;;7.30;99.90;;;;;;5078967;28;21724;-74